Aeroporto :
LOGIN :

Iscrizione | Disclaimer

   EN    FR    IT 

 










Sommario :    VFR   VFR Marginale   IFR   IFR Intensivo   IFR Molto Intensivo
Visibilità : 
Base nubi : 
>= 8 km
>= 3000ft
5 / 8 km
1000 / 3000 ft
1500m / 5 km
500 / 1000 ft
800 / 1500m
200 / 500 ft
< 800m
< 200 ft
Simboli :   Temporali  Nebbia  Neve Forte  Precipitazioni Forti  Vento > 20 kt
SIGMETs :   Varie  Temporali  Ghiacco  Turbolenza  Onda orograficha  Ceneri Vulcaniche






- Altitudine del aeroporto : 1416 ft
- Codice IATA : ZRH


LSZH - Zurich

ULTIMO METAR :
  • 210150Z 36006KT CAVOK M02/M04 Q1040 NOSIG

METARs OBSOLETI :
  • 210120Z 35005KT CAVOK M02/M05 Q1040 NOSIG
  • 210050Z 35004KT CAVOK M03/M05 Q1040 NOSIG
  • 202350Z 33004KT CAVOK M04/M05 Q1040 NOSIG
  • 202320Z 35004KT CAVOK M02/M04 Q1041 NOSIG

TAF TAF LSZH
Valido dal 21 a 00 ore il 22 a 06 ore UTC


202325Z 2100/2206 35005KT CAVOK TX02/2114Z TNM03/2106Z TNM03/2206Z
TEMPO 2100/2109 9999 SCT020
PROB40 2101/2109 BKN014
ATIS : +41 43 816 2295 (DEP) +41 43 816 2294 (ARR)



MetMap, La meteo Aeronautica in un colpo d'occhio ! - Copyright ORBIFLY Dicembre 2007 - Disclaimer

ORBIFLY MET'MAP TEAM :

Programmazione e sviluppo : Alexandra Zaïnal
Concezione : Baudouin d'Aumeries
Aiuto per la programmazione : Marc-Olivier Méhu
Supporto tecnico e logistico : Manuel Goepfert
Aiuto per la traduzione : Arnaldo La Scala

Contatto : metmap@orbifly.com




FONTI E CREDITI :

   NOAA